Time;durP1;ratioP1;P1;durP2;ratioP2;P2;SDS_P1;SDS_P2;PMS_P1;PMS_P2;Temp;Humidity;BMP_temperature;BMP_pressure;BME280_temperature;BME280_humidity;BME280_pressure;Samples;Min_cycle;Max_cycle;Signal;HPM_P1;HPM_P2
2023/10/22 00:00:56;;;;;;;5.30;1.53;;;11.10;99.90;;;10.47;86.30;99578.06;5033125;28;20206;-69
2023/10/22 00:03:24;;;;;;;3.20;1.37;;;11.10;99.90;;;10.47;86.35;99577.25;5033550;28;20207;-69
2023/10/22 00:05:52;;;;;;;2.70;1.50;;;11.10;99.90;;;10.45;85.70;99582.75;5033490;28;20226;-69
2023/10/22 00:08:21;;;;;;;7.57;1.73;;;11.10;99.90;;;10.45;86.32;99577.41;5033366;28;20203;-69
2023/10/22 00:10:50;;;;;;;3.00;1.43;;;11.10;99.90;;;10.43;85.75;99581.31;5033532;28;20246;-69
2023/10/22 00:13:18;;;;;;;4.27;1.60;;;11.10;99.90;;;10.42;85.89;99584.97;5033060;28;20260;-69
2023/10/22 00:15:46;;;;;;;3.13;1.30;;;11.00;99.90;;;10.41;86.34;99589.50;5033408;28;20226;-69
2023/10/22 00:18:15;;;;;;;5.73;1.67;;;11.00;99.90;;;10.37;86.02;99585.56;5033356;28;20236;-69
2023/10/22 00:20:43;;;;;;;5.00;1.80;;;11.00;99.90;;;10.36;86.43;99589.25;5033412;28;20210;-69
2023/10/22 00:23:11;;;;;;;8.37;1.80;;;11.00;99.90;;;10.33;86.38;99592.31;5033600;28;20210;-69
2023/10/22 00:25:39;;;;;;;7.00;2.17;;;11.00;99.90;;;10.33;86.41;99589.63;5033302;28;20223;-69
2023/10/22 00:28:09;;;;;;;4.70;1.60;;;10.90;99.90;;;10.30;86.73;99587.31;5033295;28;20235;-69
2023/10/22 00:30:37;;;;;;;3.07;1.50;;;10.90;99.90;;;10.29;86.76;99580.31;5033215;28;20653;-69
2023/10/22 00:33:06;;;;;;;5.87;2.00;;;10.90;99.90;;;10.27;86.19;99586.88;5033277;28;20249;-69
2023/10/22 00:35:35;;;;;;;9.13;2.13;;;10.90;99.90;;;10.26;86.07;99587.88;5033743;28;20313;-69
2023/10/22 00:38:03;;;;;;;6.93;1.70;;;10.90;99.90;;;10.24;86.26;99601.41;5032872;28;20238;-69
2023/10/22 00:40:31;;;;;;;4.90;1.70;;;10.90;99.90;;;10.23;86.32;99605.13;5033227;28;20210;-69
2023/10/22 00:43:05;;;;;;;7.23;1.70;;;10.90;99.90;;;10.20;86.42;99592.13;5033214;28;20211;-69
2023/10/22 00:45:38;;;;;;;4.47;1.73;;;10.80;99.90;;;10.17;86.22;99590.63;5032834;28;20755;-69
2023/10/22 00:48:09;;;;;;;4.33;1.43;;;10.80;99.90;;;10.17;86.30;99595.19;5033386;28;20202;-69
2023/10/22 00:50:39;;;;;;;4.13;1.50;;;10.80;99.90;;;10.15;86.15;99592.69;5033159;28;20191;-69
2023/10/22 00:53:08;;;;;;;9.40;2.20;;;10.80;99.90;;;10.15;86.56;99594.53;5032791;28;20206;-69
2023/10/22 00:55:40;;;;;;;4.77;1.50;;;10.80;99.90;;;10.12;86.53;99598.38;5033015;28;20317;-69
2023/10/22 00:58:09;;;;;;;7.30;1.80;;;10.80;99.90;;;10.09;87.10;99598.75;5033007;28;20195;-69
2023/10/22 01:00:39;;;;;;;8.37;1.80;;;10.70;99.90;;;10.06;87.24;99592.94;5032705;28;20211;-69
2023/10/22 01:03:08;;;;;;;6.30;2.17;;;10.70;99.90;;;10.04;87.31;99594.94;5033042;28;20201;-69
2023/10/22 01:05:38;;;;;;;7.33;1.90;;;10.60;99.90;;;10.02;86.98;99602.34;5032896;28;20223;-69
2023/10/22 01:08:06;;;;;;;9.77;2.00;;;10.60;99.90;;;9.99;86.96;99600.03;5033227;28;20218;-69
2023/10/22 01:10:35;;;;;;;7.60;2.50;;;10.60;99.90;;;9.98;87.27;99601.03;5032635;28;20215;-69
2023/10/22 01:13:04;;;;;;;3.73;1.47;;;10.60;99.90;;;9.95;87.66;99599.56;5032595;28;20297;-69
2023/10/22 01:15:32;;;;;;;14.00;2.03;;;10.60;99.90;;;9.93;87.62;99598.09;5032764;28;20701;-69
2023/10/22 01:18:04;;;;;;;6.57;1.80;;;10.60;99.90;;;9.91;87.91;99592.09;5032885;28;20644;-69
2023/10/22 01:20:32;;;;;;;7.70;1.80;;;10.50;99.90;;;9.88;87.71;99605.81;5034544;28;20758;-69
2023/10/22 01:23:01;;;;;;;7.43;1.97;;;10.50;99.90;;;9.85;87.52;99600.84;5036478;28;20229;-69
2023/10/22 01:25:30;;;;;;;4.77;1.60;;;10.40;99.90;;;9.85;87.88;99595.50;5036557;28;20224;-69
2023/10/22 01:27:59;;;;;;;2.23;1.30;;;10.50;99.90;;;9.81;87.98;99596.88;5036364;28;20302;-69
2023/10/22 01:30:27;;;;;;;3.30;1.40;;;10.40;99.90;;;9.81;87.92;99605.72;5036302;28;20307;-69
2023/10/22 01:32:56;;;;;;;4.43;1.50;;;10.40;99.90;;;9.80;87.64;99604.06;5036267;28;20306;-69
2023/10/22 01:35:24;;;;;;;4.20;1.63;;;10.40;99.90;;;9.80;87.63;99605.91;5036127;28;20242;-69
2023/10/22 01:37:52;;;;;;;6.70;2.00;;;10.40;99.90;;;9.79;87.65;99596.25;5036169;28;20242;-69
2023/10/22 01:40:20;;;;;;;5.83;2.13;;;10.40;99.90;;;9.79;87.78;99596.25;5035737;28;20800;-69
2023/10/22 01:42:50;;;;;;;2.87;1.57;;;10.40;99.90;;;9.77;87.24;99598.25;5035798;28;20752;-69
2023/10/22 01:45:18;;;;;;;5.73;1.83;;;10.40;99.90;;;9.76;88.06;99596.63;5035940;28;20226;-69
2023/10/22 01:47:47;;;;;;;2.50;1.40;;;10.40;99.90;;;9.76;87.86;99594.75;5035991;28;20233;-69
2023/10/22 01:50:15;;;;;;;2.83;1.70;;;10.40;99.90;;;9.74;87.89;99598.63;5035628;28;20723;-69
2023/10/22 01:52:44;;;;;;;1.90;1.50;;;10.40;99.90;;;9.72;87.51;99600.66;5035881;28;20238;-69
2023/10/22 01:55:12;;;;;;;4.37;1.40;;;10.30;99.90;;;9.68;87.76;99594.84;5035475;28;20778;-69
2023/10/22 01:57:40;;;;;;;3.90;1.60;;;10.30;99.90;;;9.68;87.79;99601.03;5035821;28;20207;-69
2023/10/22 02:00:11;;;;;;;3.17;1.70;;;10.30;99.90;;;9.68;87.60;99589.50;5035701;28;20568;-69
2023/10/22 02:02:40;;;;;;;3.70;1.47;;;10.30;99.90;;;9.67;88.09;99591.34;5035495;28;20663;-69
2023/10/22 02:05:09;;;;;;;5.13;1.70;;;10.30;99.90;;;9.65;87.83;99598.72;5035627;28;20285;-69
2023/10/22 02:07:38;;;;;;;3.40;1.60;;;10.30;99.90;;;9.65;87.81;99598.72;5035571;28;20599;-69
2023/10/22 02:10:08;;;;;;;3.43;1.63;;;10.30;99.90;;;9.65;87.77;99596.06;5035580;28;20241;-69
2023/10/22 02:12:37;;;;;;;3.03;1.60;;;10.30;99.90;;;9.65;87.66;99592.53;5035448;28;20223;-69
2023/10/22 02:15:07;;;;;;;3.27;1.60;;;10.30;99.90;;;9.63;87.23;99582.03;5035664;28;20313;-69
2023/10/22 02:17:37;;;;;;;2.30;1.30;;;10.30;99.90;;;9.64;87.76;99589.03;5035433;28;20214;-69
2023/10/22 02:20:08;;;;;;;2.37;1.40;;;10.30;99.90;;;9.60;87.96;99581.56;5035340;28;20265;-69
2023/10/22 02:22:37;;;;;;;1.97;1.40;;;10.30;99.90;;;9.59;88.11;99585.22;5035394;28;20222;-69
2023/10/22 02:25:07;;;;;;;2.17;1.23;;;10.20;99.90;;;9.59;88.09;99577.22;5035265;28;20313;-69
2023/10/22 02:27:35;;;;;;;2.80;1.37;;;10.30;99.90;;;9.59;88.02;99578.03;5034927;28;20304;-69
2023/10/22 02:30:04;;;;;;;4.57;1.43;;;10.20;99.90;;;9.60;88.10;99576.22;5035209;28;20202;-69
2023/10/22 02:32:33;;;;;;;1.90;1.50;;;10.30;99.90;;;9.61;88.12;99584.06;5035169;28;20231;-69
2023/10/22 02:35:03;;;;;;;7.13;1.70;;;10.30;99.90;;;9.62;87.66;99590.22;5035040;28;20664;-69
2023/10/22 02:37:31;;;;;;;2.87;1.47;;;10.30;99.90;;;9.62;87.92;99582.22;5035067;28;20242;-69
2023/10/22 02:39:59;;;;;;;4.67;1.30;;;10.30;99.90;;;9.63;88.03;99590.03;5034954;28;20270;-69
2023/10/22 02:42:27;;;;;;;4.17;1.37;;;10.30;99.90;;;9.64;87.60;99586.38;5035167;28;20215;-69
2023/10/22 02:44:55;;;;;;;5.07;1.60;;;10.40;99.90;;;9.65;87.67;99587.19;5034883;28;20241;-69
2023/10/22 02:47:23;;;;;;;2.80;1.13;;;10.40;99.90;;;9.66;87.75;99587.00;5034876;28;20214;-69
2023/10/22 02:49:54;;;;;;;3.03;1.50;;;10.40;99.90;;;9.67;87.87;99593.19;5034854;28;20276;-69
2023/10/22 02:52:23;;;;;;;3.90;1.70;;;10.40;99.90;;;9.67;87.53;99596.69;5034827;28;20194;-69
2023/10/22 02:54:53;;;;;;;3.13;1.40;;;10.40;99.90;;;9.67;87.80;99596.69;5034367;28;20660;-69
2023/10/22 02:57:21;;;;;;;2.80;1.20;;;10.40;99.90;;;9.66;87.61;99597.69;5034676;28;20297;-69
2023/10/22 02:59:49;;;;;;;2.63;1.10;;;10.40;99.90;;;9.66;87.44;99597.69;5034559;28;20322;-69
2023/10/22 03:02:19;;;;;;;3.33;1.50;;;10.40;99.90;;;9.67;87.36;99604.69;5034527;28;20289;-69
2023/10/22 03:04:47;;;;;;;3.70;1.30;;;10.40;99.90;;;9.67;87.68;99602.03;5034719;28;20325;-69
2023/10/22 03:07:16;;;;;;;2.07;0.90;;;10.40;99.90;;;9.68;87.88;99606.38;5034479;28;20233;-69
2023/10/22 03:09:45;;;;;;;3.70;1.50;;;10.40;99.90;;;9.69;87.45;99605.34;5034401;28;20745;-69
2023/10/22 03:12:14;;;;;;;3.53;1.30;;;10.40;99.90;;;9.68;87.49;99614.38;5033958;28;20558;-69
2023/10/22 03:14:42;;;;;;;2.77;1.30;;;10.40;99.90;;;9.68;87.95;99611.72;5034402;28;20693;-69
2023/10/22 03:17:10;;;;;;;3.83;1.43;;;10.40;99.90;;;9.68;87.32;99611.72;5034002;28;20578;-69
2023/10/22 03:19:38;;;;;;;3.47;1.53;;;10.40;99.90;;;9.67;87.23;99612.72;5033926;28;20722;-69
2023/10/22 03:22:09;;;;;;;3.10;1.17;;;10.40;99.90;;;9.68;87.51;99609.03;5033946;28;20202;-69
2023/10/22 03:24:37;;;;;;;3.37;1.27;;;10.40;99.90;;;9.67;87.29;99607.38;5033791;28;20207;-69
2023/10/22 03:27:07;;;;;;;5.77;1.53;;;10.40;99.90;;;9.67;87.38;99620.72;5033857;28;20210;-69
2023/10/22 03:29:35;;;;;;;5.00;1.40;;;10.40;99.90;;;9.67;87.25;99615.38;5034074;28;20213;-69
2023/10/22 03:32:05;;;;;;;2.70;1.07;;;10.40;99.90;;;9.67;86.93;99612.72;5034065;28;20206;-69
2023/10/22 03:34:33;;;;;;;2.33;1.30;;;10.40;99.90;;;9.67;87.29;99611.88;5033965;28;20210;-69
2023/10/22 03:37:04;;;;;;;3.23;1.10;;;10.40;99.90;;;9.66;87.24;99607.53;5033993;28;20290;-69
2023/10/22 03:39:33;;;;;;;7.50;1.50;;;10.40;99.90;;;9.63;87.44;99607.91;5033628;28;20663;-69
2023/10/22 03:42:01;;;;;;;3.83;1.50;;;10.40;99.90;;;9.60;87.62;99609.09;5033652;28;20564;-69
2023/10/22 03:44:30;;;;;;;4.67;1.20;;;10.30;99.90;;;9.59;87.71;99607.44;5033944;28;20210;-69
2023/10/22 03:46:59;;;;;;;2.87;1.30;;;10.30;99.90;;;9.58;88.15;99615.66;5033731;28;20293;-69
2023/10/22 03:49:27;;;;;;;2.77;1.20;;;10.30;99.90;;;9.57;87.80;99613.97;5033760;28;20297;-69
2023/10/22 03:51:55;;;;;;;3.37;1.50;;;10.20;99.90;;;9.55;87.64;99616.84;5033677;28;20207;-69
2023/10/22 03:54:23;;;;;;;1.97;1.20;;;10.30;99.90;;;9.54;87.29;99609.84;5033656;28;20233;-69
2023/10/22 03:56:51;;;;;;;2.43;1.30;;;10.20;99.90;;;9.55;87.71;99611.50;5034509;28;20213;-69
2023/10/22 03:59:19;;;;;;;3.37;1.20;;;10.30;99.90;;;9.55;87.65;99608.00;5033362;28;20680;-69
2023/10/22 04:01:49;;;;;;;3.83;1.20;;;10.30;99.90;;;9.56;87.81;99597.13;5033792;28;20226;-69
2023/10/22 04:04:17;;;;;;;2.87;1.37;;;10.30;99.90;;;9.57;87.89;99593.44;5033789;28;20207;-69
2023/10/22 04:06:45;;;;;;;3.10;1.53;;;10.30;99.90;;;9.58;87.61;99600.47;5033260;28;20574;-69
2023/10/22 04:09:13;;;;;;;4.90;1.70;;;10.30;99.90;;;9.58;88.02;99610.31;5033233;28;20571;-69
2023/10/22 04:11:41;;;;;;;2.40;1.20;;;10.30;99.90;;;9.69;86.92;99602.66;5033128;28;20611;-69
2023/10/22 04:14:09;;;;;;;3.00;1.60;;;10.40;99.90;;;9.72;86.83;99606.84;5033492;28;20229;-69
2023/10/22 04:16:38;;;;;;;3.10;1.33;;;10.50;99.90;;;9.77;86.29;99604.44;5033060;28;20783;-69
2023/10/22 04:19:07;;;;;;;2.60;1.23;;;10.50;99.90;;;9.84;85.94;99600.00;5033717;28;20218;-69
2023/10/22 04:21:35;;;;;;;4.13;1.50;;;10.60;99.90;;;9.85;86.00;99612.38;5033577;28;20236;-69
2023/10/22 04:24:04;;;;;;;3.53;1.60;;;10.60;99.90;;;9.93;85.42;99614.16;5033417;28;20246;-69
2023/10/22 04:26:33;;;;;;;3.83;1.20;;;10.70;99.90;;;10.02;85.35;99618.38;5033272;28;20226;-69
2023/10/22 04:29:01;;;;;;;4.13;1.50;;;10.80;99.90;;;10.10;84.65;99615.63;5033056;28;20587;-69
2023/10/22 04:31:29;;;;;;;4.47;1.37;;;10.90;99.90;;;10.12;84.56;99621.59;5033325;28;20205;-69
2023/10/22 04:33:57;;;;;;;2.97;1.20;;;10.90;99.90;;;10.10;84.66;99623.66;5033537;28;20242;-69
2023/10/22 04:36:27;;;;;;;4.57;1.43;;;10.90;99.90;;;10.07;84.39;99621.31;5032864;28;20651;-69
2023/10/22 04:38:55;;;;;;;4.43;1.47;;;10.80;99.90;;;10.09;84.44;99630.84;5033254;28;20249;-69
2023/10/22 04:41:23;;;;;;;4.97;1.40;;;10.80;99.90;;;10.02;85.21;99627.22;5032851;28;20727;-69
2023/10/22 04:43:51;;;;;;;5.87;1.90;;;10.80;99.90;;;10.05;84.76;99624.19;5033204;28;20302;-69
2023/10/22 04:46:19;;;;;;;5.40;1.93;;;10.80;99.90;;;10.00;85.18;99636.47;5033370;28;20233;-69
2023/10/22 04:48:47;;;;;;;4.83;1.73;;;10.70;99.90;;;10.00;85.08;99634.59;5032858;28;20603;-69
2023/10/22 04:51:16;;;;;;;4.83;1.80;;;10.80;99.90;;;9.98;85.61;99633.13;5032816;28;20207;-69
2023/10/22 04:53:45;;;;;;;5.00;1.80;;;10.70;99.90;;;9.94;86.03;99631.81;5033169;28;20211;-69
2023/10/22 04:56:13;;;;;;;3.90;1.97;;;10.70;99.90;;;9.97;85.60;99631.44;5036019;28;20762;-69
2023/10/22 04:58:42;;;;;;;5.93;2.00;;;10.70;99.90;;;9.96;86.22;99630.66;5037677;28;20234;-69
2023/10/22 05:01:10;;;;;;;4.40;2.00;;;10.70;99.90;;;10.06;85.12;99627.69;5036816;28;20321;-69
2023/10/22 05:03:39;;;;;;;6.30;1.83;;;10.80;99.90;;;10.03;85.21;99636.91;5036767;28;20213;-69
2023/10/22 05:06:07;;;;;;;3.43;1.50;;;10.80;99.90;;;10.01;84.97;99635.44;5036653;28;20835;-69
2023/10/22 05:08:38;;;;;;;3.53;1.60;;;10.80;99.90;;;9.98;86.08;99644.66;5037304;28;20219;-69
2023/10/22 05:11:13;;;;;;;3.10;1.30;;;10.70;99.90;;;9.97;85.97;99642.16;5036809;28;20199;-69
2023/10/22 05:13:41;;;;;;;2.30;1.47;;;10.70;99.90;;;9.92;86.27;99652.56;5036351;28;20201;-69
2023/10/22 05:16:10;;;;;;;2.67;1.20;;;10.70;99.90;;;9.90;86.66;99647.41;5036545;28;20226;-69
2023/10/22 05:18:39;;;;;;;4.17;1.50;;;10.70;99.90;;;9.88;86.49;99654.78;5036526;28;20203;-69
2023/10/22 05:21:07;;;;;;;3.67;1.40;;;10.60;99.90;;;9.87;86.32;99661.13;5036474;28;20237;-69
2023/10/22 05:23:36;;;;;;;3.57;1.30;;;10.60;99.90;;;9.87;86.81;99668.31;5036465;28;20206;-69
2023/10/22 05:26:12;;;;;;;7.47;1.47;;;10.60;99.90;;;9.86;86.56;99666.69;5036372;28;20303;-69
2023/10/22 05:28:40;;;;;;;3.77;1.50;;;10.60;99.90;;;9.83;87.04;99672.38;5037206;28;20187;-69
2023/10/22 05:31:17;;;;;;;4.23;1.40;;;10.60;99.90;;;9.83;86.83;99675.06;5036363;28;20217;-69
2023/10/22 05:33:46;;;;;;;5.17;1.57;;;10.60;99.90;;;9.83;86.66;99685.75;5036308;28;20209;-69
2023/10/22 05:36:16;;;;;;;4.33;1.53;;;10.60;99.90;;;9.83;86.92;99688.44;5035838;28;20226;-69
2023/10/22 05:38:45;;;;;;;4.43;1.40;;;10.60;99.90;;;9.81;86.87;99683.25;5036219;28;20199;-69
2023/10/22 05:41:21;;;;;;;4.10;1.47;;;10.60;99.90;;;9.81;87.01;99688.59;5036089;28;20223;-69
2023/10/22 05:43:49;;;;;;;1.47;1.30;;;10.60;99.90;;;9.80;86.85;99699.44;5036162;28;20191;-69
2023/10/22 05:46:18;;;;;;;3.20;1.53;;;10.50;99.90;;;9.78;87.07;99691.63;5035947;28;20227;-69
2023/10/22 05:48:46;;;;;;;3.00;1.27;;;10.50;99.90;;;9.77;87.13;99695.31;5036008;28;20289;-69
2023/10/22 05:51:14;;;;;;;3.43;1.63;;;10.50;99.90;;;9.75;87.27;99696.50;5036004;28;20225;-69
2023/10/22 05:53:43;;;;;;;4.30;1.20;;;10.50;99.90;;;9.74;87.37;99705.53;5035613;28;20715;-69
2023/10/22 05:56:11;;;;;;;2.73;1.60;;;10.40;99.90;;;9.73;87.67;99701.19;5036625;28;20282;-69
2023/10/22 05:58:40;;;;;;;7.93;1.90;;;10.50;99.90;;;9.72;87.53;99704.91;5035810;28;20211;-69
2023/10/22 06:01:10;;;;;;;4.57;1.40;;;10.40;99.90;;;9.70;87.81;99699.72;5035744;28;20240;-69
2023/10/22 06:03:38;;;;;;;4.23;1.60;;;10.40;99.90;;;9.71;87.83;99692.53;5035668;28;20799;-69
2023/10/22 06:06:06;;;;;;;4.73;1.40;;;10.40;99.90;;;9.69;87.71;99703.41;5035282;28;20313;-69
2023/10/22 06:08:34;;;;;;;5.77;1.70;;;10.40;99.90;;;9.67;88.03;99702.75;5035327;28;20684;-69
2023/10/22 06:11:04;;;;;;;4.43;1.90;;;10.40;99.90;;;9.67;88.33;99714.28;5035602;28;20203;-69
2023/10/22 06:13:33;;;;;;;4.60;1.53;;;10.40;99.90;;;9.69;87.85;99720.25;5035366;28;20215;-69
2023/10/22 06:16:02;;;;;;;3.40;1.30;;;10.40;99.90;;;9.71;87.56;99721.94;5035439;28;20223;-69
2023/10/22 06:18:31;;;;;;;7.87;1.87;;;10.40;99.90;;;9.72;87.53;99728.94;5035694;28;20214;-69
2023/10/22 06:20:59;;;;;;;3.43;1.40;;;10.40;99.90;;;9.70;87.89;99726.44;5035368;28;20211;-69
2023/10/22 06:23:27;;;;;;;4.90;1.70;;;10.40;99.90;;;9.71;87.95;99722.75;5035364;28;20203;-69
2023/10/22 06:25:56;;;;;;;3.43;1.70;;;10.50;99.90;;;9.71;88.16;99725.44;5034987;28;20314;-69
2023/10/22 06:28:24;;;;;;;4.17;1.30;;;10.40;99.90;;;9.72;88.14;99729.78;5035320;28;20238;-69
2023/10/22 06:30:52;;;;;;;3.27;1.53;;;10.50;99.90;;;9.72;88.24;99734.28;5034953;28;20246;-69
2023/10/22 06:33:21;;;;;;;3.10;1.47;;;10.50;99.90;;;9.71;88.50;99737.97;5035170;28;20203;-69
2023/10/22 06:35:50;;;;;;;3.50;1.53;;;10.40;99.90;;;9.72;88.66;99742.31;5035080;28;20304;-69
2023/10/22 06:38:18;;;;;;;5.60;1.73;;;10.40;99.90;;;9.73;88.22;99757.31;5035086;28;20207;-69
2023/10/22 06:40:46;;;;;;;2.57;1.50;;;10.50;99.90;;;9.73;88.09;99747.47;5034995;28;20298;-69
2023/10/22 06:43:14;;;;;;;4.23;1.87;;;10.50;99.90;;;9.76;88.68;99756.97;5034606;28;20700;-69
2023/10/22 06:45:42;;;;;;;5.07;1.73;;;10.50;99.90;;;9.76;88.63;99752.44;5034539;28;20660;-69
2023/10/22 06:48:10;;;;;;;5.70;1.90;;;10.50;99.90;;;9.76;88.59;99756.97;5034898;28;20246;-69
2023/10/22 06:50:43;;;;;;;6.37;1.70;;;10.50;99.90;;;9.78;88.69;99758.47;5034848;28;20203;-69
2023/10/22 06:53:11;;;;;;;9.77;2.23;;;10.50;99.90;;;9.78;89.17;99762.97;5034837;28;20191;-69
2023/10/22 06:55:42;;;;;;;4.80;1.50;;;10.50;99.90;;;9.77;89.12;99772.00;5034663;28;20326;-69
2023/10/22 06:58:10;;;;;;;7.57;1.77;;;10.50;99.90;;;9.78;89.24;99771.00;5034707;28;20282;-69
2023/10/22 07:00:39;;;;;;;4.07;1.40;;;10.50;99.90;;;9.78;89.52;99781.69;5034332;28;20582;-69
2023/10/22 07:03:07;;;;;;;3.93;1.50;;;10.50;99.90;;;9.79;89.24;99788.69;5034559;28;20677;-69
2023/10/22 07:05:35;;;;;;;2.83;1.60;;;10.60;99.90;;;9.85;89.44;99785.31;5034473;28;20227;-69
2023/10/22 07:08:05;;;;;;;7.43;1.53;;;10.60;99.90;;;9.89;89.29;99799.97;5034517;28;20203;-69
2023/10/22 07:10:33;;;;;;;2.93;1.80;;;10.70;99.90;;;9.90;89.25;99794.44;5034420;28;20213;-69
2023/10/22 07:13:01;;;;;;;3.50;1.60;;;10.70;99.90;;;9.90;89.22;99796.28;5034301;28;20301;-69
2023/10/22 07:15:29;;;;;;;4.47;1.70;;;10.70;99.90;;;9.94;89.38;99797.59;5033984;28;20265;-69
2023/10/22 07:17:58;;;;;;;5.80;1.67;;;10.70;99.90;;;9.94;89.58;99797.59;5033887;28;20207;-69
2023/10/22 07:20:26;;;;;;;4.07;1.77;;;10.70;99.90;;;9.98;90.09;99806.94;5034279;28;20210;-69
2023/10/22 07:22:54;;;;;;;5.17;1.73;;;10.70;99.90;;;9.98;90.32;99804.25;5034164;28;20638;-69
2023/10/22 07:25:24;;;;;;;4.13;1.97;;;10.70;99.90;;;10.01;90.67;99806.56;5033812;28;20269;-69
2023/10/22 07:27:52;;;;;;;7.57;1.57;;;10.80;99.90;;;10.03;90.05;99801.88;5034045;28;20727;-70
2023/10/22 07:30:20;;;;;;;4.90;1.90;;;10.80;99.90;;;10.06;90.32;99804.19;5034072;28;20252;-69
2023/10/22 07:32:51;;;;;;;3.27;1.90;;;10.80;99.90;;;10.10;90.17;99808.19;5034026;28;20198;-69
2023/10/22 07:35:20;;;;;;;5.57;1.80;;;10.80;99.90;;;10.12;90.53;99811.50;5033697;28;20744;-69
2023/10/22 07:37:48;;;;;;;22.07;10.47;;;10.90;99.90;;;10.12;90.63;99801.63;5034034;28;20246;-69
2023/10/22 07:40:18;;;;;;;7.87;3.87;;;10.90;99.90;;;10.14;90.58;99804.97;5033648;28;20242;-69
2023/10/22 07:42:49;;;;;;;13.67;7.43;;;10.90;99.90;;;10.15;91.29;99805.81;5033522;28;20223;-69
2023/10/22 07:45:17;;;;;;;15.73;9.37;;;10.90;99.90;;;10.16;91.33;99805.66;5033839;28;20272;-69
2023/10/22 07:47:45;;;;;;;4.73;2.27;;;10.90;99.90;;;10.30;89.73;99819.25;5033532;28;20199;-69
2023/10/22 07:50:14;;;;;;;4.13;2.00;;;11.10;99.90;;;10.40;89.37;99823.31;5033491;28;20768;-69
2023/10/22 07:52:42;;;;;;;7.60;4.63;;;11.20;99.90;;;10.36;90.62;99814.00;5033451;28;20632;-69
2023/10/22 07:55:10;;;;;;;6.10;3.10;;;11.10;99.90;;;10.37;90.32;99825.53;5033671;28;20265;-69
2023/10/22 07:57:39;;;;;;;5.77;2.77;;;11.20;99.90;;;10.37;90.81;99826.38;5033657;28;20573;-69
2023/10/22 08:00:11;;;;;;;3.27;2.30;;;11.20;99.90;;;10.39;90.21;99831.50;5033665;28;20206;-69
2023/10/22 08:02:39;;;;;;;5.60;2.47;;;11.20;99.90;;;10.38;91.10;99824.50;5033286;28;20584;-69
2023/10/22 08:05:08;;;;;;;6.73;2.60;;;11.20;99.90;;;10.39;91.07;99820.81;5033498;28;20249;-70
2023/10/22 08:07:36;;;;;;;4.00;2.13;;;11.20;99.90;;;10.42;91.45;99826.63;5033533;28;20246;-69
2023/10/22 08:10:05;;;;;;;4.27;1.90;;;11.20;99.90;;;10.43;91.59;99822.97;5033507;28;20238;-69
2023/10/22 08:12:34;;;;;;;6.97;2.10;;;11.20;99.90;;;10.43;91.66;99822.13;5033604;28;20246;-69
2023/10/22 08:15:03;;;;;;;4.20;2.10;;;11.20;99.90;;;10.46;92.03;99835.13;5033406;28;20223;-69
2023/10/22 08:17:32;;;;;;;2.90;1.40;;;11.30;99.90;;;10.49;91.46;99834.75;5033464;28;20215;-69
2023/10/22 08:20:01;;;;;;;6.93;2.60;;;11.30;99.90;;;10.56;91.51;99833.88;5033446;28;20210;-68
2023/10/22 08:22:29;;;;;;;7.33;2.93;;;11.40;99.90;;;10.64;91.14;99831.13;5033305;28;20226;-69
2023/10/22 08:24:57;;;;;;;6.40;2.77;;;11.40;99.90;;;10.77;90.38;99840.34;5032994;28;20804;-69
2023/10/22 08:27:25;;;;;;;7.60;2.17;;;11.50;99.90;;;10.80;90.83;99832.78;5033371;28;20207;-69
2023/10/22 08:29:54;;;;;;;2.37;1.43;;;11.60;99.90;;;10.94;90.56;99841.84;5036245;28;20207;-69
2023/10/22 08:32:23;;;;;;;7.37;2.13;;;11.70;99.90;;;11.07;89.70;99845.53;5037448;28;20218;-69
2023/10/22 08:34:52;;;;;;;4.53;2.13;;;11.90;99.90;;;11.18;90.41;99854.94;5037050;28;20262;-69
2023/10/22 08:37:20;;;;;;;4.60;2.60;;;12.00;99.90;;;11.36;88.53;99873.34;5037056;28;20268;-69
2023/10/22 08:39:49;;;;;;;5.60;2.90;;;12.20;99.90;;;11.50;87.29;99881.38;5037577;28;20245;-69
2023/10/22 08:42:24;;;;;;;4.97;1.47;;;12.30;99.90;;;11.82;85.21;99890.84;5037245;28;20207;-69
2023/10/22 08:44:52;;;;;;;4.73;1.90;;;12.60;99.90;;;11.94;84.65;99891.19;5037216;28;20233;-69
2023/10/22 08:47:21;;;;;;;2.97;1.60;;;12.80;99.90;;;12.12;84.15;99905.00;5037183;28;20643;-69
2023/10/22 08:49:53;;;;;;;4.37;1.63;;;12.90;99.90;;;12.24;84.25;99898.09;5036815;28;20659;-69
2023/10/22 08:52:21;;;;;;;4.03;1.83;;;13.00;99.90;;;12.38;82.25;99899.06;5037127;28;20218;-69
2023/10/22 08:54:51;;;;;;;3.43;1.57;;;13.20;99.90;;;12.35;82.58;99902.13;5036964;28;20233;-69
2023/10/22 08:57:24;;;;;;;4.03;1.70;;;13.20;99.90;;;12.29;82.85;99906.44;5036957;28;20203;-69
2023/10/22 08:59:53;;;;;;;4.17;1.60;;;13.10;99.90;;;12.17;82.98;99907.94;5036983;28;20195;-69
2023/10/22 09:02:26;;;;;;;4.67;1.60;;;13.00;99.90;;;12.10;83.01;99913.25;5036810;28;20202;-69
2023/10/22 09:04:56;;;;;;;3.07;1.90;;;12.90;99.90;;;12.00;84.27;99914.56;5036831;28;20267;-70
2023/10/22 09:07:53;;;;;;;4.40;1.93;;;12.80;99.90;;;12.07;82.68;99912.78;5036809;28;20253;-70
2023/10/22 09:10:26;;;;;;;3.73;1.60;;;12.80;99.90;;;11.95;83.88;99917.00;5036498;28;20668;-69
2023/10/22 09:12:55;;;;;;;3.33;1.77;;;12.70;99.90;;;11.94;84.93;99912.66;5036360;28;20702;-69
2023/10/22 09:15:23;;;;;;;7.37;1.70;;;12.70;99.90;;;11.93;84.91;99916.34;5036520;28;20231;-69
2023/10/22 09:18:02;;;;;;;3.57;1.37;;;12.70;99.90;;;11.89;84.91;99918.56;5036326;28;20373;-69
2023/10/22 09:20:34;;;;;;;5.83;1.70;;;12.70;99.90;;;11.92;84.81;99925.41;5036622;28;20249;-69
2023/10/22 09:23:17;;;;;;;3.97;1.80;;;12.70;99.90;;;11.98;84.92;99921.97;5036434;28;20214;-69
2023/10/22 09:25:51;;;;;;;5.17;2.00;;;12.70;99.90;;;11.97;85.83;99925.69;5036460;28;20231;-69
2023/10/22 09:28:21;;;;;;;7.10;2.80;;;12.70;99.90;;;11.95;85.34;99920.50;5036478;28;20198;-69
2023/10/22 09:30:56;;;;;;;6.97;2.73;;;12.70;99.90;;;11.99;85.34;99926.31;5036474;28;20241;-69
2023/10/22 09:33:33;;;;;;;7.47;3.63;;;12.70;99.90;;;11.96;86.50;99932.06;5036336;28;20190;-69
2023/10/22 09:36:05;;;;;;;4.57;1.93;;;12.70;99.90;;;12.04;85.10;99929.28;5036313;28;20229;-69
2023/10/22 09:38:48;;;;;;;4.47;1.63;;;12.80;99.90;;;12.07;85.36;99935.09;5036249;28;20195;-69
2023/10/22 09:41:29;;;;;;;3.70;1.93;;;12.80;99.90;;;12.14;85.12;99936.00;5035464;28;20304;-69
2023/10/22 09:43:59;;;;;;;2.47;1.40;;;12.90;99.90;;;12.26;84.36;99932.81;5036881;28;20253;-70
2023/10/22 09:46:32;;;;;;;2.63;1.47;;;13.00;99.90;;;12.32;83.77;99937.41;5035727;28;20716;-69
2023/10/22 09:49:03;;;;;;;3.93;1.60;;;13.10;99.90;;;12.31;84.23;99944.63;5036089;28;20626;-69
2023/10/22 09:51:37;;;;;;;3.03;1.60;;;13.00;99.90;;;12.37;83.66;99946.56;5035735;28;20748;-69
2023/10/22 09:54:08;;;;;;;6.73;3.70;;;13.10;99.90;;;12.39;85.05;99949.06;5035961;28;20225;-69
2023/10/22 09:56:51;;;;;;;15.40;8.33;;;13.10;99.90;;;12.42;83.93;99945.97;5035449;28;20222;-69
2023/10/22 09:59:22;;;;;;;72.47;41.40;;;13.10;99.90;;;12.43;84.05;99947.66;5035900;28;20202;-69
2023/10/22 10:01:52;;;;;;;13.07;7.77;;;13.10;99.90;;;12.45;84.30;99953.66;5035893;28;20195;-69
2023/10/22 10:04:22;;;;;;;6.40;3.43;;;13.20;99.90;;;12.49;82.83;99952.25;5035711;28;20231;-69
2023/10/22 10:06:53;;;;;;;8.10;4.87;;;13.20;99.90;;;12.48;84.28;99955.94;5035785;28;20195;-69
2023/10/22 10:09:24;;;;;;;15.93;8.37;;;13.20;99.90;;;12.57;82.59;99958.31;5035674;28;20230;-69
2023/10/22 10:11:54;;;;;;;13.87;9.83;;;13.30;99.90;;;12.62;82.45;99961.25;5035503;28;20218;-69
2023/10/22 10:14:42;;;;;;;4.90;4.17;;;13.30;99.90;;;12.74;82.79;99964.25;5035552;28;20258;-69
2023/10/22 10:17:11;;;;;;;8.47;5.07;;;13.50;99.90;;;12.92;81.70;99961.09;5035603;28;20219;-69
2023/10/22 10:19:40;;;;;;;8.37;2.93;;;13.60;99.90;;;13.04;81.87;99959.56;5035157;28;20677;-69
2023/10/22 10:22:10;;;;;;;5.43;3.43;;;13.80;99.90;;;13.12;81.11;99952.19;5035393;28;20211;-69
2023/10/22 10:24:38;;;;;;;4.70;2.20;;;13.80;99.90;;;13.13;80.60;99958.41;5035225;28;20318;-69
2023/10/22 10:27:26;;;;;;;5.03;2.20;;;13.90;99.90;;;13.08;80.19;99966.22;5035326;28;20206;-69
2023/10/22 10:30:16;;;;;;;4.23;2.90;;;13.80;99.90;;;13.03;80.04;99965.94;5035022;28;20301;-69
2023/10/22 10:32:45;;;;;;;5.30;2.00;;;13.70;99.90;;;13.03;80.23;99969.47;5034651;28;20642;-70